createdAt,value
2023-04-01T03:00:20.892Z,11.03
2023-04-01T03:02:50.713Z,11.00
2023-04-01T03:05:20.771Z,11.02
2023-04-01T03:07:50.020Z,11.02
2023-04-01T03:10:19.084Z,11.01
2023-04-01T03:12:48.410Z,11.01
2023-04-01T03:15:17.349Z,11.01
2023-04-01T03:17:46.435Z,10.99
2023-04-01T03:20:16.472Z,10.97
2023-04-01T03:22:47.412Z,10.97
2023-04-01T03:25:16.407Z,11.02
2023-04-01T03:27:45.568Z,11.03
2023-04-01T03:30:14.610Z,11.08
2023-04-01T03:32:49.208Z,11.12
2023-04-01T03:35:18.192Z,11.09
2023-04-01T03:37:48.480Z,11.07
2023-04-01T03:40:17.617Z,11.08
2023-04-01T03:42:47.213Z,11.03
2023-04-01T03:45:17.853Z,10.94
2023-04-01T03:47:47.088Z,10.89
2023-04-01T03:50:16.785Z,10.88
2023-04-01T03:52:45.758Z,10.90
2023-04-01T03:55:14.597Z,10.91
2023-04-01T03:57:45.126Z,10.96
2023-04-01T04:00:18.271Z,11.03
2023-04-01T04:02:47.543Z,11.07
2023-04-01T04:05:20.781Z,11.08
2023-04-01T04:07:49.779Z,11.09
2023-04-01T04:10:18.628Z,11.06
2023-04-01T04:12:47.329Z,10.98
2023-04-01T04:15:17.636Z,10.91
2023-04-01T04:17:47.008Z,10.81
2023-04-01T04:20:16.902Z,10.76
2023-04-01T04:22:47.968Z,10.71
2023-04-01T04:25:16.556Z,10.67
2023-04-01T04:27:45.523Z,10.68
2023-04-01T04:30:15.046Z,10.75
2023-04-01T04:32:43.585Z,10.80
2023-04-01T04:35:13.008Z,10.84
2023-04-01T04:37:42.190Z,10.85
2023-04-01T04:40:12.068Z,10.83
2023-04-01T04:42:41.211Z,10.80
2023-04-01T04:45:14.042Z,10.78
2023-04-01T04:47:47.993Z,10.75
2023-04-01T04:50:18.317Z,10.72
2023-04-01T04:52:46.658Z,10.71
2023-04-01T04:55:16.610Z,10.74
2023-04-01T04:57:47.945Z,10.78
2023-04-01T05:00:17.076Z,10.78
2023-04-01T05:02:55.528Z,10.78
2023-04-01T05:05:24.762Z,10.78
2023-04-01T05:07:54.133Z,10.76
2023-04-01T05:10:22.561Z,10.71
2023-04-01T05:12:51.340Z,10.69
2023-04-01T05:15:23.416Z,10.66
2023-04-01T05:17:52.676Z,10.64
2023-04-01T05:20:22.146Z,10.64
2023-04-01T05:22:50.716Z,10.60
2023-04-01T05:25:19.606Z,10.54
2023-04-01T05:27:47.859Z,10.53
2023-04-01T05:30:16.472Z,10.48
2023-04-01T05:33:06.454Z,10.44
2023-04-01T05:35:36.064Z,10.41
2023-04-01T05:38:05.504Z,10.38
2023-04-01T05:40:33.818Z,10.37
2023-04-01T05:43:02.221Z,10.34
2023-04-01T05:45:31.880Z,10.30
2023-04-01T05:48:01.605Z,10.27
2023-04-01T05:50:35.133Z,10.29
2023-04-01T05:53:04.587Z,10.32
2023-04-01T05:55:33.370Z,10.34
2023-04-01T05:58:02.353Z,10.36
2023-04-01T06:00:32.046Z,10.37
2023-04-01T06:03:02.209Z,10.38
2023-04-01T06:05:32.923Z,10.38
2023-04-01T06:08:07.706Z,10.38
2023-04-01T06:10:56.533Z,10.38
2023-04-01T06:13:43.773Z,10.38
2023-04-01T06:16:12.844Z,10.37
2023-04-01T06:18:41.970Z,10.39
2023-04-01T06:21:20.206Z,10.40
2023-04-01T06:24:06.265Z,10.39
2023-04-01T06:26:39.610Z,10.35
2023-04-01T06:29:21.209Z,10.34
2023-04-01T06:32:09.263Z,10.33
2023-04-01T06:34:41.672Z,10.34
2023-04-01T06:37:29.259Z,10.31
2023-04-01T06:39:58.219Z,10.23
2023-04-01T06:42:27.735Z,10.07
2023-04-01T06:45:15.792Z,9.90
2023-04-01T06:48:06.973Z,9.78
2023-04-01T06:50:57.586Z,9.73
2023-04-01T06:53:54.946Z,9.68
2023-04-01T06:56:57.052Z,9.60
2023-04-01T06:59:28.675Z,9.51
2023-04-01T07:02:18.130Z,9.44
2023-04-01T07:04:52.887Z,9.39
2023-04-01T07:07:21.899Z,9.35
2023-04-01T07:10:03.340Z,9.24
2023-04-01T07:12:32.710Z,9.21
2023-04-01T07:26:58.944Z,9.82
2023-04-01T07:29:30.486Z,9.89
2023-04-01T07:32:23.982Z,9.85
2023-04-01T07:35:14.575Z,9.80
2023-04-01T07:38:17.092Z,9.72
2023-04-01T07:40:55.309Z,9.62
2023-04-01T07:43:33.179Z,9.56
2023-04-01T07:46:32.749Z,9.53
2023-04-01T07:49:13.960Z,9.48
2023-04-01T07:52:10.832Z,9.38
2023-04-01T07:54:57.288Z,9.26
2023-04-01T07:57:42.689Z,9.17
2023-04-01T08:00:24.294Z,9.13
2023-04-01T08:03:16.721Z,9.04
2023-04-01T08:06:08.878Z,8.96
2023-04-01T08:08:41.844Z,8.84
2023-04-01T08:12:31.525Z,8.73
2023-04-01T08:15:22.516Z,8.66
2023-04-01T08:18:27.972Z,8.66
2023-04-01T08:21:47.537Z,8.68
2023-04-01T08:24:34.341Z,8.69
2023-04-01T08:28:16.532Z,8.70
2023-04-01T08:30:59.414Z,8.69
2023-04-01T08:33:48.139Z,8.74
2023-04-01T08:36:20.686Z,8.76
2023-04-01T08:39:01.311Z,8.79
2023-04-01T08:41:43.095Z,8.83
2023-04-01T08:45:07.054Z,8.86
2023-04-01T08:48:10.212Z,8.89
2023-04-01T08:50:44.377Z,8.97
2023-04-01T08:54:21.681Z,9.06
2023-04-01T08:57:00.149Z,9.15
2023-04-01T08:59:51.518Z,9.24
2023-04-01T09:03:24.916Z,9.31
2023-04-01T09:06:12.092Z,9.41
2023-04-01T09:08:46.608Z,9.49
2023-04-01T09:11:43.338Z,9.52
2023-04-01T09:14:43.971Z,9.52
2023-04-01T09:17:46.369Z,9.53
2023-04-01T09:20:37.230Z,9.58
2023-04-01T09:23:24.911Z,9.61
2023-04-01T09:26:15.279Z,9.64
2023-04-01T09:29:23.481Z,9.63
2023-04-01T09:32:14.593Z,9.63
2023-04-01T09:35:08.725Z,9.58
2023-04-01T09:37:51.361Z,9.55
2023-04-01T09:40:53.655Z,9.59
2023-04-01T09:43:57.851Z,9.65
2023-04-01T09:46:45.830Z,9.73
2023-04-01T09:49:53.986Z,9.84
2023-04-01T09:52:55.257Z,9.98
2023-04-01T09:55:59.765Z,9.98
2023-04-01T09:58:57.752Z,9.98
2023-04-01T10:02:03.550Z,10.06
2023-04-01T10:05:14.158Z,10.14
2023-04-01T10:07:59.262Z,10.14
2023-04-01T10:11:13.730Z,10.18
2023-04-01T10:14:14.158Z,10.08
2023-04-01T10:17:08.093Z,9.95
2023-04-01T10:20:15.024Z,9.87
2023-04-01T10:22:55.827Z,9.77
2023-04-01T10:25:44.049Z,9.63
2023-04-01T10:28:27.829Z,9.49
2023-04-01T10:32:22.105Z,9.41
2023-04-01T10:35:12.170Z,9.30
2023-04-01T10:38:11.966Z,9.26
2023-04-01T10:40:43.838Z,9.31
2023-04-01T10:43:56.490Z,9.32
2023-04-01T10:47:04.998Z,9.38
2023-04-01T10:49:55.602Z,9.45
2023-04-01T10:52:54.926Z,9.50
2023-04-01T10:56:21.787Z,9.45
2023-04-01T10:59:55.597Z,9.31
2023-04-01T11:03:22.360Z,9.24
2023-04-01T11:06:51.097Z,9.16
2023-04-01T11:10:04.793Z,9.03
2023-04-01T11:12:56.852Z,9.03
2023-04-01T11:15:42.329Z,9.00
2023-04-01T11:18:51.791Z,8.96
2023-04-01T11:21:26.545Z,8.88
2023-04-01T11:25:13.584Z,8.87
2023-04-01T11:33:12.359Z,8.75
2023-04-01T11:35:56.619Z,8.72
2023-04-01T11:38:45.225Z,8.76
2023-04-01T11:42:03.551Z,8.74
2023-04-01T11:46:10.596Z,8.66
2023-04-01T11:49:31.555Z,8.68
2023-04-01T11:52:46.174Z,8.67
2023-04-01T11:55:26.078Z,8.72
2023-04-01T11:58:16.015Z,8.65
2023-04-01T12:01:07.105Z,8.53
2023-04-01T12:08:26.083Z,8.26
2023-04-01T12:11:44.684Z,8.24
2023-04-01T12:15:27.793Z,8.22
2023-04-01T12:18:05.054Z,8.13
2023-04-01T12:21:14.905Z,8.09
2023-04-01T12:24:38.214Z,8.08
2023-04-01T12:31:38.358Z,8.05
2023-04-01T12:34:44.050Z,8.02
2023-04-01T12:38:01.322Z,8.03
2023-04-01T12:41:08.492Z,8.05
2023-04-01T12:43:42.598Z,8.10
2023-04-01T12:46:46.440Z,8.13
2023-04-01T12:49:17.853Z,8.14
2023-04-01T12:51:46.291Z,8.14
2023-04-01T12:54:42.946Z,8.15
2023-04-01T12:57:26.445Z,8.18
2023-04-01T13:05:02.923Z,8.18
2023-04-01T13:07:37.629Z,8.13
2023-04-01T13:14:45.038Z,8.08
2023-04-01T13:27:31.897Z,8.22
2023-04-01T13:34:54.961Z,8.29
2023-04-01T13:38:01.237Z,8.29
2023-04-01T13:40:46.853Z,8.25
2023-04-01T13:43:30.878Z,8.22
2023-04-01T13:46:02.398Z,8.13
2023-04-01T13:48:50.389Z,8.08
2023-04-01T13:51:53.470Z,8.04
2023-04-01T13:54:52.494Z,7.98
2023-04-01T13:57:39.950Z,7.90
2023-04-01T14:00:27.624Z,7.84
2023-04-01T14:03:09.225Z,7.81
2023-04-01T14:05:53.043Z,7.82
2023-04-01T14:08:56.842Z,7.82
2023-04-01T14:11:43.626Z,7.83
2023-04-01T14:14:50.457Z,7.77
2023-04-01T14:17:32.209Z,7.67
2023-04-01T14:20:27.549Z,7.66
2023-04-01T14:23:33.185Z,7.65
2023-04-01T14:26:01.618Z,7.65
2023-04-01T14:28:58.363Z,7.59
2023-04-01T14:32:02.397Z,7.56
2023-04-01T14:35:01.452Z,7.55
2023-04-01T14:37:48.979Z,7.52
2023-04-01T14:40:57.423Z,7.48
2023-04-01T14:44:00.126Z,7.41
2023-04-01T14:46:49.200Z,7.37
2023-04-01T14:49:32.303Z,7.33
2023-04-01T14:52:22.573Z,7.29
2023-04-01T14:54:53.320Z,7.23
2023-04-01T14:57:33.636Z,7.13
2023-04-01T15:00:05.071Z,7.08
2023-04-01T15:02:48.298Z,7.04
2023-04-01T15:05:36.522Z,6.99
2023-04-01T15:08:14.748Z,6.98
2023-04-01T15:11:19.961Z,6.99
2023-04-01T15:14:15.105Z,6.98
2023-04-01T15:17:03.340Z,6.97
2023-04-01T15:19:57.379Z,6.97
2023-04-01T15:22:34.958Z,6.91
2023-04-01T15:25:38.637Z,6.86
2023-04-01T15:28:32.897Z,6.82
2023-04-01T15:31:28.367Z,6.79
2023-04-01T15:34:19.094Z,6.78
2023-04-01T15:36:57.391Z,6.78
2023-04-01T15:39:33.622Z,6.73
2023-04-01T15:42:26.853Z,6.69
2023-04-01T15:45:09.135Z,6.68
2023-04-01T15:47:37.631Z,6.62
2023-04-01T15:50:40.325Z,6.56
2023-04-01T15:53:29.439Z,6.53
2023-04-01T15:56:08.933Z,6.46
2023-04-01T15:58:57.378Z,6.40
2023-04-01T16:02:09.483Z,6.34
2023-04-01T16:04:41.491Z,6.27
2023-04-01T16:07:41.754Z,6.23
2023-04-01T16:10:48.172Z,6.18
2023-04-01T16:13:39.286Z,6.16
2023-04-01T16:16:20.094Z,6.13
2023-04-01T16:19:12.152Z,6.11
2023-04-01T16:21:53.309Z,6.08
2023-04-01T16:24:42.815Z,6.06
2023-04-01T16:27:24.210Z,6.03
2023-04-01T16:30:03.392Z,5.98
2023-04-01T16:32:48.498Z,5.92
2023-04-01T16:35:41.988Z,5.85
2023-04-01T16:38:42.206Z,5.80
2023-04-01T16:41:38.712Z,5.74
2023-04-01T16:44:28.581Z,5.69
2023-04-01T16:47:06.756Z,5.63
2023-04-01T16:49:41.460Z,5.60
2023-04-01T16:52:10.985Z,5.56
2023-04-01T16:54:58.788Z,5.55
2023-04-01T16:57:38.218Z,5.56
2023-04-01T17:00:42.017Z,5.57
2023-04-01T17:03:22.975Z,5.56
2023-04-01T17:06:12.503Z,5.58
2023-04-01T17:09:02.831Z,5.56
2023-04-01T17:11:43.915Z,5.50
2023-04-01T17:14:30.010Z,5.44
2023-04-01T17:17:21.028Z,5.42
2023-04-01T17:20:36.585Z,5.40
2023-04-01T17:23:14.832Z,5.38
2023-04-01T17:26:32.447Z,5.37
2023-04-01T17:29:14.054Z,5.39
2023-04-01T17:32:20.476Z,5.37
2023-04-01T17:35:34.500Z,5.36
2023-04-01T17:38:15.661Z,5.36
2023-04-01T17:40:58.144Z,5.34
2023-04-01T17:43:50.478Z,5.31
2023-04-01T17:46:42.719Z,5.30
2023-04-01T17:49:34.986Z,5.30
2023-04-01T17:52:21.824Z,5.31
2023-04-01T17:54:55.523Z,5.33
2023-04-01T17:57:43.398Z,5.30
2023-04-01T18:00:27.258Z,5.26
2023-04-01T18:02:59.550Z,5.21
2023-04-01T18:05:40.133Z,5.18
2023-04-01T18:08:34.020Z,5.18
2023-04-01T18:11:14.552Z,5.16
2023-04-01T18:14:10.333Z,5.20
2023-04-01T18:16:58.627Z,5.19
2023-04-01T18:19:39.785Z,5.20
2023-04-01T18:22:24.159Z,5.20
2023-04-01T18:25:23.552Z,5.20
2023-04-01T18:28:01.360Z,5.21
2023-04-01T18:30:32.990Z,5.23
2023-04-01T18:33:18.057Z,5.25
2023-04-01T18:36:21.777Z,5.28
2023-04-01T18:39:12.751Z,5.31
2023-04-01T18:42:09.573Z,5.29
2023-04-01T18:44:49.687Z,5.31
2023-04-01T18:47:45.078Z,5.31
2023-04-01T18:50:49.055Z,5.32
2023-04-01T18:53:27.709Z,5.33
2023-04-01T18:56:04.016Z,5.31
2023-04-01T18:58:46.793Z,5.27
2023-04-01T19:01:41.608Z,5.24
2023-04-01T19:04:40.591Z,5.21
2023-04-01T19:07:50.785Z,5.23
2023-04-01T19:10:48.401Z,5.24
2023-04-01T19:13:40.467Z,5.23
2023-04-01T19:16:37.152Z,5.21
2023-04-01T19:19:36.278Z,5.20
2023-04-01T19:22:42.495Z,5.18
2023-04-01T19:25:14.320Z,5.15
2023-04-01T19:27:54.675Z,5.14
2023-04-01T19:30:48.763Z,5.18
2023-04-01T19:33:39.187Z,5.20
2023-04-01T19:36:20.004Z,5.22
2023-04-01T19:38:51.972Z,5.22
2023-04-01T19:41:36.530Z,5.16
2023-04-01T19:44:20.286Z,5.10
2023-04-01T19:47:21.778Z,5.08
2023-04-01T19:50:29.937Z,5.06
2023-04-01T19:53:07.424Z,5.05
2023-04-01T19:55:46.286Z,5.08
2023-04-01T19:58:41.274Z,5.09
2023-04-01T20:01:18.795Z,5.08
2023-04-01T20:03:57.554Z,5.10
2023-04-01T20:06:47.850Z,5.12
2023-04-01T20:09:51.476Z,5.13
2023-04-01T20:12:46.497Z,5.12
2023-04-01T20:15:34.410Z,5.11
2023-04-01T20:18:16.334Z,5.04
2023-04-01T20:21:00.972Z,5.01
2023-04-01T20:23:44.473Z,4.97
2023-04-01T20:26:15.571Z,4.94
2023-04-01T20:29:14.402Z,4.92
2023-04-01T20:31:46.745Z,4.85
2023-04-01T20:34:27.947Z,4.78
2023-04-01T20:37:02.751Z,4.79
2023-04-01T20:40:16.020Z,4.82
2023-04-01T20:43:20.664Z,4.79
2023-04-01T20:45:59.195Z,4.74
2023-04-01T20:49:01.911Z,4.66
2023-04-01T20:51:35.981Z,4.59
2023-04-01T20:54:13.239Z,4.61
2023-04-01T20:56:58.749Z,4.64
2023-04-01T20:59:40.729Z,4.66
2023-04-01T21:02:30.868Z,4.68
2023-04-01T21:05:19.399Z,4.71
2023-04-01T21:08:04.963Z,4.69
2023-04-01T21:10:44.929Z,4.69
2023-04-01T21:13:43.409Z,4.70
2023-04-01T21:16:28.289Z,4.72
2023-04-01T21:18:59.829Z,4.76
2023-04-01T21:21:57.767Z,4.81
2023-04-01T21:24:45.788Z,4.84
2023-04-01T21:27:54.144Z,4.82
2023-04-01T21:31:11.452Z,4.81
2023-04-01T21:34:00.454Z,4.82
2023-04-01T21:37:02.045Z,4.79
2023-04-01T21:39:58.633Z,4.75
2023-04-01T21:42:46.118Z,4.75
2023-04-01T21:45:52.037Z,4.70
2023-04-01T21:48:51.441Z,4.67
2023-04-01T21:51:57.593Z,4.63
2023-04-01T21:54:55.196Z,4.59
2023-04-01T21:57:46.345Z,4.54
2023-04-01T22:00:33.942Z,4.52
2023-04-01T22:03:23.998Z,4.50
2023-04-01T22:06:04.602Z,4.47
2023-04-01T22:08:53.711Z,4.44
2023-04-01T22:11:39.814Z,4.46
2023-04-01T22:14:19.150Z,4.51
2023-04-01T22:17:05.007Z,4.52
2023-04-01T22:19:58.313Z,4.51
2023-04-01T22:22:50.454Z,4.48
2023-04-01T22:25:41.845Z,4.48
2023-04-01T22:28:30.811Z,4.52
2023-04-01T22:31:04.400Z,4.54
2023-04-01T22:33:57.876Z,4.58
2023-04-01T22:36:50.085Z,4.59
2023-04-01T22:40:09.970Z,4.53
2023-04-01T22:43:23.035Z,4.49
2023-04-01T22:46:25.214Z,4.45
2023-04-01T22:49:29.154Z,4.47
2023-04-01T22:52:14.254Z,4.50
2023-04-01T22:55:00.034Z,4.45
2023-04-01T22:57:31.950Z,4.44
2023-04-01T23:00:22.366Z,4.42
2023-04-01T23:03:13.800Z,4.40
2023-04-01T23:05:53.142Z,4.43
2023-04-01T23:08:43.158Z,4.43
2023-04-01T23:11:20.070Z,4.44
2023-04-01T23:14:06.661Z,4.43
2023-04-01T23:16:49.231Z,4.38
2023-04-01T23:20:16.880Z,4.35
2023-04-01T23:23:09.513Z,4.24
2023-04-01T23:26:11.422Z,4.21
2023-04-01T23:28:54.884Z,4.13
2023-04-01T23:31:46.895Z,4.11
2023-04-01T23:34:36.573Z,4.08
2023-04-01T23:37:17.181Z,4.12
2023-04-01T23:39:54.077Z,4.15
2023-04-01T23:42:33.242Z,4.22
2023-04-01T23:45:14.582Z,4.25
2023-04-01T23:47:45.114Z,4.23
2023-04-01T23:50:22.567Z,4.19
2023-04-01T23:53:01.966Z,4.15
2023-04-01T23:55:35.873Z,4.13
2023-04-01T23:58:09.301Z,4.09
